Time;durP1;ratioP1;P1;durP2;ratioP2;P2;SDS_P1;SDS_P2;PMS_P1;PMS_P2;Temp;Humidity;BMP_temperature;BMP_pressure;BME280_temperature;BME280_humidity;BME280_pressure;Samples;Min_cycle;Max_cycle;Signal;HPM_P1;HPM_P2
2023/04/25 00:02:08;;;;;;;1.88;1.25;;;;;;;;;;6165526;28;20058;-76
2023/04/25 00:05:11;;;;;;;1.58;1.10;;;;;;;;;;6169408;28;20062;-76
2023/04/25 00:08:13;;;;;;;2.50;0.97;;;;;;;;;;6171239;28;20055;-77
2023/04/25 00:11:14;;;;;;;2.53;1.25;;;;;;;;;;6171499;28;20102;-76
2023/04/25 00:14:16;;;;;;;1.75;0.98;;;;;;;;;;6170238;28;20404;-76
2023/04/25 00:17:18;;;;;;;3.33;1.13;;;;;;;;;;6172133;28;20050;-75
2023/04/25 00:20:23;;;;;;;1.63;1.13;;;;;;;;;;6172897;28;20553;-77
2023/04/25 00:23:24;;;;;;;2.10;1.13;;;;;;;;;;6168365;28;20055;-76
2023/04/25 00:26:26;;;;;;;2.75;1.20;;;;;;;;;;6168582;28;20083;-75
2023/04/25 00:29:28;;;;;;;6.72;4.72;;;;;;;;;;6169618;28;20035;-75
2023/04/25 00:32:29;;;;;;;2.83;1.00;;;;;;;;;;6167705;28;20062;-76
2023/04/25 00:35:32;;;;;;;3.28;1.08;;;;;;;;;;6171215;28;20275;-75
2023/04/25 00:38:34;;;;;;;1.83;1.00;;;;;;;;;;6167823;28;20067;-76
2023/04/25 00:41:36;;;;;;;3.28;1.38;;;;;;;;;;6171073;28;20057;-79
2023/04/25 00:44:38;;;;;;;1.50;0.90;;;;;;;;;;6170960;28;20051;-83
2023/04/25 00:47:40;;;;;;;1.42;1.10;;;;;;;;;;6172093;28;20373;-78
2023/04/25 00:50:49;;;;;;;2.20;1.10;;;;;;;;;;6166145;28;20146;-79
2023/04/25 00:53:51;;;;;;;1.50;0.80;;;;;;;;;;6172761;28;20105;-78
2023/04/25 00:56:53;;;;;;;3.67;1.23;;;;;;;;;;6168760;28;20054;-79
2023/04/25 00:59:55;;;;;;;1.50;0.90;;;;;;;;;;6162421;28;20354;-79
2023/04/25 01:02:57;;;;;;;1.40;0.82;;;;;;;;;;6157418;28;20058;-82
2023/04/25 01:06:00;;;;;;;1.00;0.90;;;;;;;;;;6160623;28;20051;-80
2023/04/25 01:09:03;;;;;;;2.70;1.20;;;;;;;;;;6155641;28;20351;-79
2023/04/25 01:12:05;;;;;;;2.38;1.27;;;;;;;;;;6154929;28;20061;-80
2023/04/25 01:15:08;;;;;;;2.55;1.20;;;;;;;;;;6146099;28;20074;-80
2023/04/25 01:18:13;;;;;;;1.90;0.98;;;;;;;;;;6148627;28;20342;-83
2023/04/25 01:21:16;;;;;;;2.42;1.10;;;;;;;;;;6147297;28;20061;-81
2023/04/25 01:24:18;;;;;;;2.03;1.23;;;;;;;;;;6150093;28;20291;-81
2023/04/25 01:27:20;;;;;;;3.30;1.10;;;;;;;;;;6147481;28;20310;-83
2023/04/25 01:30:29;;;;;;;4.50;1.20;;;;;;;;;;6144839;28;20118;-81
2023/04/25 01:33:31;;;;;;;1.95;1.27;;;;;;;;;;6149779;28;20121;-80
2023/04/25 01:36:34;;;;;;;2.15;1.27;;;;;;;;;;6144486;28;20047;-83
2023/04/25 01:39:39;;;;;;;1.63;1.30;;;;;;;;;;6138409;28;20470;-80
2023/04/25 01:42:50;;;;;;;2.83;1.40;;;;;;;;;;6141690;28;21330;-82
2023/04/25 01:45:52;;;;;;;4.47;1.30;;;;;;;;;;6147272;28;20182;-82
2023/04/25 01:48:55;;;;;;;4.82;1.20;;;;;;;;;;6149838;28;20061;-80
2023/04/25 01:52:01;;;;;;;5.47;1.60;;;;;;;;;;6144921;28;20338;-80
2023/04/25 01:55:04;;;;;;;2.15;1.40;;;;;;;;;;6152487;28;20121;-85
2023/04/25 02:01:21;;;;;;;2.70;1.42;;;;;;;;;;6154645;28;20058;-80
2023/04/25 02:04:23;;;;;;;2.28;1.70;;;;;;;;;;6157143;28;20680;-80
2023/04/25 02:07:27;;;;;;;2.40;1.50;;;;;;;;;;6146654;28;20050;-80
2023/04/25 02:10:29;;;;;;;2.22;1.70;;;;;;;;;;6145444;28;20069;-79
2023/04/25 02:13:30;;;;;;;2.67;1.70;;;;;;;;;;6144023;28;20067;-80
2023/04/25 02:16:32;;;;;;;2.53;1.70;;;;;;;;;;6145596;28;20370;-80
2023/04/25 02:19:34;;;;;;;2.28;1.63;;;;;;;;;;6146481;28;20224;-82
2023/04/25 02:22:37;;;;;;;2.55;1.80;;;;;;;;;;6151326;28;20070;-81
2023/04/25 02:25:39;;;;;;;2.67;1.77;;;;;;;;;;6141011;28;22559;-84
2023/04/25 02:28:41;;;;;;;3.28;1.70;;;;;;;;;;6150670;28;22949;-80
2023/04/25 02:31:42;;;;;;;2.78;1.80;;;;;;;;;;6146970;28;20050;-82
2023/04/25 02:34:44;;;;;;;2.75;1.80;;;;;;;;;;6146115;28;20135;-81
2023/04/25 02:37:47;;;;;;;2.70;2.03;;;;;;;;;;6144264;28;20087;-79
2023/04/25 02:40:49;;;;;;;3.07;1.90;;;;;;;;;;6147189;28;20336;-81
2023/04/25 02:43:51;;;;;;;5.60;3.15;;;;;;;;;;6139801;28;20046;-80
2023/04/25 02:47:01;;;;;;;3.45;1.80;;;;;;;;;;6282377;27;20649;-78
2023/04/25 02:50:02;;;;;;;3.63;2.10;;;;;;;;;;6272780;28;20057;-79
2023/04/25 02:53:04;;;;;;;3.20;2.13;;;;;;;;;;6251878;28;20494;-77
2023/04/25 02:56:07;;;;;;;6.22;4.13;;;;;;;;;;6254001;28;20057;-78
2023/04/25 02:59:09;;;;;;;3.40;2.13;;;;;;;;;;6245157;28;20053;-79
2023/04/25 03:02:15;;;;;;;3.03;1.70;;;;;;;;;;6266885;28;20055;-79
2023/04/25 03:05:17;;;;;;;4.15;1.90;;;;;;;;;;6266215;28;20205;-79
2023/04/25 03:08:19;;;;;;;5.97;4.80;;;;;;;;;;6269083;28;20056;-78
2023/04/25 03:11:21;;;;;;;3.88;1.75;;;;;;;;;;6271903;28;20328;-78
2023/04/25 03:14:26;;;;;;;3.17;1.50;;;;;;;;;;6271714;28;20052;-77
2023/04/25 03:17:30;;;;;;;3.33;1.63;;;;;;;;;;6266609;28;20103;-78
2023/04/25 03:20:31;;;;;;;2.72;1.85;;;;;;;;;;6266803;28;20056;-78
2023/04/25 03:23:33;;;;;;;2.38;1.73;;;;;;;;;;6273310;28;20049;-77
2023/04/25 03:26:35;;;;;;;2.47;1.40;;;;;;;;;;6271368;28;20329;-79
2023/04/25 03:29:37;;;;;;;3.00;1.77;;;;;;;;;;6265678;28;20062;-78
2023/04/25 03:32:41;;;;;;;1.80;1.30;;;;;;;;;;6246223;28;20060;-78
2023/04/25 03:35:43;;;;;;;2.38;1.55;;;;;;;;;;6268146;28;20090;-78
2023/04/25 03:38:45;;;;;;;2.58;1.52;;;;;;;;;;6248922;28;20051;-78
2023/04/25 03:41:56;;;;;;;2.88;1.80;;;;;;;;;;6266984;28;20056;-78
2023/04/25 03:45:01;;;;;;;3.15;1.83;;;;;;;;;;6261096;28;20060;-78
2023/04/25 03:48:05;;;;;;;3.50;2.13;;;;;;;;;;6263994;28;20303;-78
2023/04/25 03:51:07;;;;;;;3.00;1.90;;;;;;;;;;6259208;28;20359;-78
2023/04/25 03:54:09;;;;;;;3.17;1.80;;;;;;;;;;6249745;28;20052;-78
2023/04/25 03:57:10;;;;;;;5.45;2.10;;;;;;;;;;6252104;28;20049;-77
2023/04/25 04:00:22;;;;;;;5.35;1.80;;;;;;;;;;6245140;28;20056;-79
2023/04/25 04:03:33;;;;;;;3.28;1.67;;;;;;;;;;6250139;28;20344;-78
2023/04/25 04:06:36;;;;;;;6.88;1.75;;;;;;;;;;6239417;28;20143;-79
2023/04/25 04:09:37;;;;;;;2.73;1.70;;;;;;;;;;6246363;28;20060;-77
2023/04/25 04:12:42;;;;;;;5.35;1.90;;;;;;;;;;6224929;28;20064;-79
2023/04/25 04:15:47;;;;;;;3.00;1.80;;;;;;;;;;6238129;28;20045;-78
2023/04/25 04:18:54;;;;;;;5.28;2.38;;;;;;;;;;6219064;28;20069;-79
2023/04/25 04:21:56;;;;;;;3.08;2.05;;;;;;;;;;6232315;28;20357;-79
2023/04/25 04:24:57;;;;;;;3.38;2.17;;;;;;;;;;6242238;28;20091;-78
2023/04/25 04:28:00;;;;;;;2.35;2.03;;;;;;;;;;6243256;28;20057;-78
2023/04/25 04:31:02;;;;;;;2.30;1.77;;;;;;;;;;6246441;28;20568;-78
2023/04/25 04:34:05;;;;;;;2.67;1.70;;;;;;;;;;6251464;28;20398;-78
2023/04/25 04:37:08;;;;;;;2.53;1.90;;;;;;;;;;6246935;28;20073;-78
2023/04/25 04:40:10;;;;;;;2.80;1.90;;;;;;;;;;6245872;28;20161;-78
2023/04/25 04:43:12;;;;;;;4.03;2.22;;;;;;;;;;6241547;28;21076;-78
2023/04/25 04:46:18;;;;;;;5.57;2.08;;;;;;;;;;6256194;28;20056;-79
2023/04/25 04:49:21;;;;;;;5.35;2.40;;;;;;;;;;6254865;28;20102;-78
2023/04/25 04:52:23;;;;;;;3.20;1.95;;;;;;;;;;6253031;28;20058;-78
2023/04/25 04:55:28;;;;;;;4.10;2.03;;;;;;;;;;6255457;28;20057;-79
2023/04/25 04:58:30;;;;;;;2.95;2.15;;;;;;;;;;6254794;28;20053;-79
2023/04/25 05:01:32;;;;;;;2.85;2.30;;;;;;;;;;6255284;28;20053;-78
2023/04/25 05:04:35;;;;;;;4.40;2.72;;;;;;;;;;6249810;28;20045;-79
2023/04/25 05:07:37;;;;;;;3.00;2.13;;;;;;;;;;6242242;28;20060;-78
2023/04/25 05:10:38;;;;;;;2.38;1.70;;;;;;;;;;6253489;28;20067;-79
2023/04/25 05:13:40;;;;;;;3.17;1.90;;;;;;;;;;6255260;28;20049;-78
2023/04/25 05:16:43;;;;;;;3.47;2.10;;;;;;;;;;6254834;28;20061;-78
2023/04/25 05:19:46;;;;;;;3.85;2.08;;;;;;;;;;6245038;28;20049;-78
2023/04/25 05:22:51;;;;;;;3.55;2.17;;;;;;;;;;6251116;28;20064;-78
2023/04/25 05:25:52;;;;;;;3.10;2.08;;;;;;;;;;6247098;28;20136;-78
2023/04/25 05:28:54;;;;;;;2.88;2.03;;;;;;;;;;6224882;28;20067;-78
2023/04/25 05:31:56;;;;;;;5.78;2.35;;;;;;;;;;6241818;28;20072;-79
2023/04/25 05:35:06;;;;;;;3.13;2.08;;;;;;;;;;6230987;28;20076;-79
2023/04/25 05:38:08;;;;;;;3.05;2.20;;;;;;;;;;6244803;28;20057;-78
2023/04/25 05:41:10;;;;;;;2.80;1.95;;;;;;;;;;6243576;28;20058;-78
2023/04/25 05:44:15;;;;;;;3.45;1.92;;;;;;;;;;6225253;28;20117;-79
2023/04/25 05:47:17;;;;;;;2.25;1.73;;;;;;;;;;6222230;28;20053;-78
2023/04/25 05:50:21;;;;;;;3.00;2.33;;;;;;;;;;6245428;28;20048;-78
2023/04/25 05:53:23;;;;;;;;;;;;;;;;;;6248078;28;20335;-79
2023/04/25 05:56:25;;;;;;;3.08;2.25;;;;;;;;;;6251396;28;19925;-77
2023/04/25 05:59:27;;;;;;;3.00;2.17;;;;;;;;;;6214613;28;20049;-78
2023/04/25 06:02:30;;;;;;;3.00;2.20;;;;;;;;;;6234116;28;20052;-78
2023/04/25 06:05:35;;;;;;;3.28;1.90;;;;;;;;;;6241512;28;20064;-78
2023/04/25 06:08:40;;;;;;;3.38;1.67;;;;;;;;;;6243102;28;20045;-78
2023/04/25 06:11:44;;;;;;;3.25;1.73;;;;;;;;;;6248888;28;20052;-78
2023/04/25 06:14:46;;;;;;;5.95;1.50;;;;;;;;;;6245746;28;20057;-78
2023/04/25 06:17:48;;;;;;;2.60;1.67;;;;;;;;;;6229463;28;20099;-79
2023/04/25 06:20:52;;;;;;;2.78;1.45;;;;;;;;;;6229435;28;20968;-79
2023/04/25 06:24:03;;;;;;;2.45;1.90;;;;;;;;;;6232481;28;20058;-79
2023/04/25 06:27:05;;;;;;;2.85;1.80;;;;;;;;;;6240792;28;20079;-77
2023/04/25 06:30:08;;;;;;;2.60;1.50;;;;;;;;;;6246611;28;20045;-79
2023/04/25 06:33:10;;;;;;;1.70;1.35;;;;;;;;;;6254194;28;20045;-77
2023/04/25 06:36:13;;;;;;;2.13;1.40;;;;;;;;;;6855026;22;20103;-79
2023/04/25 06:39:15;;;;;;;3.97;1.95;;;;;;;;;;6205916;23;20066;-76
2023/04/25 06:42:17;;;;;;;4.97;1.58;;;;;;;;;;6188960;28;20058;-78
2023/04/25 06:45:19;;;;;;;177.18;160.00;;;;;;;;;;6187789;28;20053;-78
2023/04/25 06:48:20;;;;;;;12.80;10.65;;;;;;;;;;6185164;28;20065;-78
2023/04/25 06:51:24;;;;;;;3.53;2.17;;;;;;;;;;6190360;28;20059;-78
2023/04/25 06:54:27;;;;;;;5.65;1.52;;;;;;;;;;6194793;28;20096;-77
2023/04/25 06:57:28;;;;;;;2.33;1.35;;;;;;;;;;6198074;28;20129;-77
2023/04/25 07:00:30;;;;;;;3.20;1.70;;;;;;;;;;6213528;28;20269;-77
2023/04/25 07:03:32;;;;;;;4.53;1.42;;;;;;;;;;6190262;28;20058;-78
2023/04/25 07:06:37;;;;;;;1.90;1.60;;;;;;;;;;6189769;28;20105;-78
2023/04/25 07:09:39;;;;;;;2.17;1.23;;;;;;;;;;6190776;28;20105;-77
2023/04/25 07:12:41;;;;;;;3.47;1.30;;;;;;;;;;6190470;28;20318;-77
2023/04/25 07:15:42;;;;;;;2.83;1.10;;;;;;;;;;6192230;28;20062;-79
2023/04/25 07:18:44;;;;;;;1.80;1.40;;;;;;;;;;6191715;28;20125;-79
2023/04/25 07:21:47;;;;;;;2.20;1.35;;;;;;;;;;6189714;28;20666;-79
2023/04/25 07:24:49;;;;;;;1.70;1.20;;;;;;;;;;6190476;28;20120;-78
2023/04/25 07:27:51;;;;;;;2.97;1.60;;;;;;;;;;6192480;28;20050;-78
2023/04/25 07:30:52;;;;;;;1.95;1.30;;;;;;;;;;6189451;28;20068;-79
2023/04/25 07:33:54;;;;;;;4.28;1.50;;;;;;;;;;6195004;28;20277;-78
2023/04/25 07:36:59;;;;;;;2.00;1.30;;;;;;;;;;6195295;28;20054;-79
2023/04/25 07:40:00;;;;;;;68.22;33.45;;;;;;;;;;6193951;28;20055;-75
2023/04/25 07:43:02;;;;;;;70.30;34.05;;;;;;;;;;6189342;28;20050;-76
2023/04/25 07:46:04;;;;;;;10.68;7.53;;;;;;;;;;6191963;28;20050;-76
2023/04/25 07:49:05;;;;;;;2.50;1.77;;;;;;;;;;6193412;28;20046;-76
2023/04/25 07:52:08;;;;;;;2.53;1.52;;;;;;;;;;6192738;28;20054;-77
2023/04/25 07:55:10;;;;;;;1.63;1.30;;;;;;;;;;6191755;28;20058;-78
2023/04/25 07:58:12;;;;;;;3.03;1.58;;;;;;;;;;6196010;28;20054;-76
2023/04/25 08:01:14;;;;;;;4.18;1.90;;;;;;;;;;6193878;28;20342;-76
2023/04/25 08:04:16;;;;;;;2.67;1.33;;;;;;;;;;6193515;28;20410;-76
2023/04/25 08:07:19;;;;;;;4.18;1.85;;;;;;;;;;6193584;28;20061;-77
2023/04/25 08:10:22;;;;;;;2.15;1.60;;;;;;;;;;6193504;28;20118;-77
2023/04/25 08:13:24;;;;;;;3.10;1.50;;;;;;;;;;6190835;28;20046;-77
2023/04/25 08:16:27;;;;;;;2.30;1.75;;;;;;;;;;6194545;28;20280;-76
2023/04/25 08:19:29;;;;;;;1.75;1.40;;;;;;;;;;6194974;28;20337;-77
2023/04/25 08:22:33;;;;;;;2.65;1.77;;;;;;;;;;6190009;28;20073;-77
2023/04/25 08:25:35;;;;;;;2.67;1.90;;;;;;;;;;6189784;28;20280;-77
2023/04/25 08:28:37;;;;;;;2.63;1.80;;;;;;;;;;6190957;28;20222;-77
2023/04/25 08:31:39;;;;;;;3.53;2.38;;;;;;;;;;6195976;28;20054;-76
2023/04/25 08:34:42;;;;;;;8.45;2.15;;;;;;;;;;6191809;28;20110;-77
2023/04/25 08:37:45;;;;;;;2.90;1.87;;;;;;;;;;6192545;28;20110;-77
2023/04/25 08:40:50;;;;;;;4.03;1.75;;;;;;;;;;6191925;28;20129;-76
2023/04/25 08:43:53;;;;;;;2.35;1.50;;;;;;;;;;6188091;28;20055;-76
2023/04/25 08:46:56;;;;;;;3.83;1.80;;;;;;;;;;6193089;28;20162;-76
2023/04/25 08:49:58;;;;;;;2.40;1.47;;;;;;;;;;6191309;28;20050;-76
2023/04/25 08:53:05;;;;;;;2.20;1.70;;;;;;;;;;6190048;28;20050;-76
2023/04/25 08:56:09;;;;;;;2.90;1.52;;;;;;;;;;6194067;28;20093;-75
2023/04/25 08:59:11;;;;;;;4.68;1.67;;;;;;;;;;6190885;28;20051;-74
2023/04/25 09:02:16;;;;;;;3.00;2.20;;;;;;;;;;6191447;28;20113;-74
2023/04/25 09:05:18;;;;;;;2.80;1.98;;;;;;;;;;6190116;28;20069;-77
2023/04/25 09:08:21;;;;;;;3.47;2.20;;;;;;;;;;6190152;28;20050;-74
2023/04/25 09:11:25;;;;;;;4.20;2.13;;;;;;;;;;6190370;28;20054;-75
2023/04/25 09:14:27;;;;;;;3.58;1.80;;;;;;;;;;6188705;28;20078;-74
2023/04/25 09:17:29;;;;;;;5.53;1.90;;;;;;;;;;6190063;28;20054;-75
2023/04/25 09:20:31;;;;;;;4.63;1.70;;;;;;;;;;6191461;28;20050;-75
2023/04/25 09:23:40;;;;;;;3.10;1.65;;;;;;;;;;6190189;28;20428;-75
2023/04/25 09:26:43;;;;;;;3.08;1.50;;;;;;;;;;6190579;28;20444;-74
2023/04/25 09:29:46;;;;;;;4.68;1.90;;;;;;;;;;6190418;28;20050;-75
2023/04/25 09:32:48;;;;;;;3.80;1.70;;;;;;;;;;6188378;28;20077;-74
2023/04/25 09:35:55;;;;;;;4.90;2.58;;;;;;;;;;6189252;28;20050;-74
2023/04/25 09:39:00;;;;;;;3.47;2.35;;;;;;;;;;6190498;28;20059;-72
2023/04/25 09:42:03;;;;;;;5.53;2.30;;;;;;;;;;6190263;28;20097;-74
2023/04/25 09:45:06;;;;;;;4.32;1.98;;;;;;;;;;6191169;28;20218;-73
2023/04/25 09:48:07;;;;;;;4.72;1.95;;;;;;;;;;6191414;28;20058;-75
2023/04/25 09:51:10;;;;;;;2.78;2.10;;;;;;;;;;6189203;28;20043;-73
2023/04/25 09:54:13;;;;;;;3.17;1.70;;;;;;;;;;6190834;28;20622;-74
2023/04/25 09:57:17;;;;;;;4.18;1.77;;;;;;;;;;6191498;28;20097;-74
2023/04/25 10:00:21;;;;;;;4.18;1.67;;;;;;;;;;6192197;28;20054;-74
2023/04/25 10:03:23;;;;;;;3.22;2.10;;;;;;;;;;6188194;28;20046;-74
2023/04/25 10:06:26;;;;;;;3.77;2.10;;;;;;;;;;6189676;28;20046;-77
2023/04/25 10:09:31;;;;;;;6.78;2.10;;;;;;;;;;6190229;28;20050;-76
2023/04/25 10:12:34;;;;;;;2.97;2.10;;;;;;;;;;6190801;28;20062;-77
2023/04/25 10:15:37;;;;;;;4.32;2.60;;;;;;;;;;6194152;28;20074;-76
2023/04/25 10:18:38;;;;;;;3.37;2.17;;;;;;;;;;6194403;28;20290;-77
2023/04/25 10:21:47;;;;;;;4.18;2.20;;;;;;;;;;6196457;28;20054;-78
2023/04/25 10:24:51;;;;;;;4.60;2.78;;;;;;;;;;6197316;28;20066;-77
2023/04/25 10:27:52;;;;;;;;;;;;;;;;;;6196813;28;20332;-78
2023/04/25 10:31:00;;;;;;;3.83;2.20;;;;;;;;;;6195150;28;20005;-77
2023/04/25 10:34:02;;;;;;;4.93;2.28;;;;;;;;;;6189414;28;20159;-78
2023/04/25 10:37:04;;;;;;;6.50;2.10;;;;;;;;;;6195313;28;20125;-75
2023/04/25 10:40:11;;;;;;;2.17;1.90;;;;;;;;;;6194893;28;20318;-77
2023/04/25 10:43:40;;;;;;;3.67;1.80;;;;;;;;;;6194028;28;20345;-75
2023/04/25 10:46:41;;;;;;;3.45;2.33;;;;;;;;;;6185688;28;20071;-77
2023/04/25 10:49:43;;;;;;;3.33;2.17;;;;;;;;;;6187798;28;20055;-76
2023/04/25 10:52:45;;;;;;;4.53;1.60;;;;;;;;;;6188233;28;20058;-74
2023/04/25 10:55:52;;;;;;;2.78;1.67;;;;;;;;;;6187958;28;20046;-78
2023/04/25 10:59:04;;;;;;;4.35;2.10;;;;;;;;;;6189843;28;20402;-77
2023/04/25 11:02:12;;;;;;;3.63;2.22;;;;;;;;;;6187855;28;20338;-75
2023/04/25 11:05:22;;;;;;;3.72;1.88;;;;;;;;;;6187847;28;20141;-77
2023/04/25 11:08:33;;;;;;;6.50;2.10;;;;;;;;;;6193442;28;20058;-76
2023/04/25 11:11:38;;;;;;;2.63;1.92;;;;;;;;;;6191641;28;20250;-76
2023/04/25 11:14:40;;;;;;;4.30;2.28;;;;;;;;;;6195966;28;20097;-76
2023/04/25 11:17:43;;;;;;;3.30;2.17;;;;;;;;;;6194380;28;20046;-76
2023/04/25 11:20:44;;;;;;;2.83;2.10;;;;;;;;;;6193235;28;20112;-75
2023/04/25 11:23:47;;;;;;;3.30;2.20;;;;;;;;;;6194917;28;20101;-74
2023/04/25 11:26:51;;;;;;;3.40;1.85;;;;;;;;;;6195074;28;20083;-76
2023/04/25 11:29:52;;;;;;;2.83;1.70;;;;;;;;;;6200695;28;20089;-76
2023/04/25 11:32:54;;;;;;;3.38;1.60;;;;;;;;;;6196886;28;20101;-77
2023/04/25 11:35:56;;;;;;;4.05;1.75;;;;;;;;;;6198371;28;20054;-83
2023/04/25 11:38:58;;;;;;;4.28;2.08;;;;;;;;;;6197958;28;20244;-75
2023/04/25 11:42:02;;;;;;;5.38;2.03;;;;;;;;;;6198626;28;20322;-73
2023/04/25 11:45:05;;;;;;;3.60;2.03;;;;;;;;;;6195484;28;20042;-77
2023/04/25 11:48:06;;;;;;;3.25;1.60;;;;;;;;;;6201370;28;20114;-77
2023/04/25 11:51:08;;;;;;;4.65;2.15;;;;;;;;;;6201184;28;20471;-78
2023/04/25 11:54:10;;;;;;;3.50;2.20;;;;;;;;;;6198078;28;20125;-77
2023/04/25 11:57:16;;;;;;;2.80;2.05;;;;;;;;;;6196645;28;20058;-79
2023/04/25 12:00:20;;;;;;;6.15;2.63;;;;;;;;;;6193765;28;20078;-79
2023/04/25 12:03:25;;;;;;;3.10;2.42;;;;;;;;;;6197585;28;20069;-78
2023/04/25 12:06:28;;;;;;;5.60;2.45;;;;;;;;;;6199999;28;20051;-78
2023/04/25 12:09:31;;;;;;;3.80;2.00;;;;;;;;;;6198469;28;20354;-78
2023/04/25 12:12:34;;;;;;;4.35;1.98;;;;;;;;;;6196947;28;20189;-78
2023/04/25 12:15:36;;;;;;;4.10;2.10;;;;;;;;;;6200757;28;20055;-78
2023/04/25 12:18:38;;;;;;;3.63;2.08;;;;;;;;;;6196517;28;20057;-78
2023/04/25 12:21:40;;;;;;;3.53;2.00;;;;;;;;;;6196494;28;20113;-78
2023/04/25 12:24:45;;;;;;;2.55;1.45;;;;;;;;;;6198797;28;20094;-78
2023/04/25 12:27:49;;;;;;;3.58;1.90;;;;;;;;;;6195384;28;20042;-78
2023/04/25 12:30:59;;;;;;;3.17;1.90;;;;;;;;;;6197995;28;20059;-79
2023/04/25 12:34:00;;;;;;;5.20;2.22;;;;;;;;;;6199682;28;20057;-78
2023/04/25 12:37:03;;;;;;;2.40;2.00;;;;;;;;;;6192485;28;20114;-78
2023/04/25 12:40:06;;;;;;;2.95;1.50;;;;;;;;;;6189797;28;20341;-78
2023/04/25 12:43:09;;;;;;;2.65;1.75;;;;;;;;;;6192655;28;20061;-78
2023/04/25 12:46:11;;;;;;;3.47;2.08;;;;;;;;;;6192206;28;20117;-78
2023/04/25 12:49:12;;;;;;;5.00;1.58;;;;;;;;;;6191749;28;20065;-78
2023/04/25 12:52:14;;;;;;;2.17;1.00;;;;;;;;;;6191641;28;20113;-78
2023/04/25 12:55:17;;;;;;;4.75;1.40;;;;;;;;;;6190081;28;20054;-79
2023/04/25 12:58:20;;;;;;;6.38;1.27;;;;;;;;;;6195676;28;20058;-78
2023/04/25 13:01:22;;;;;;;9.15;1.33;;;;;;;;;;6190424;28;20062;-77
2023/04/25 13:04:27;;;;;;;3.08;1.20;;;;;;;;;;6190931;28;20054;-78
2023/04/25 13:07:29;;;;;;;4.07;0.98;;;;;;;;;;6192076;28;20401;-77
2023/04/25 13:10:31;;;;;;;3.80;1.20;;;;;;;;;;6188326;28;20253;-74
2023/04/25 13:13:34;;;;;;;4.05;1.08;;;;;;;;;;6191541;28;20129;-75
2023/04/25 13:16:36;;;;;;;2.45;0.70;;;;;;;;;;6189163;28;20066;-75
2023/04/25 13:19:38;;;;;;;2.83;0.80;;;;;;;;;;6194632;28;20066;-72
2023/04/25 13:22:40;;;;;;;2.75;0.88;;;;;;;;;;6190066;28;20368;-75
2023/04/25 13:25:42;;;;;;;2.17;1.10;;;;;;;;;;6191727;28;20246;-77
2023/04/25 13:28:45;;;;;;;1.17;0.82;;;;;;;;;;6189854;28;20573;-77
2023/04/25 13:31:46;;;;;;;2.60;0.80;;;;;;;;;;6191268;28;20302;-76
2023/04/25 13:34:48;;;;;;;2.40;0.90;;;;;;;;;;6195461;28;20346;-79
2023/04/25 13:37:50;;;;;;;1.98;1.08;;;;;;;;;;6189418;28;20125;-78
2023/04/25 13:40:53;;;;;;;2.42;0.70;;;;;;;;;;6191008;28;20105;-78
2023/04/25 13:43:56;;;;;;;1.60;0.93;;;;;;;;;;6192531;28;20051;-78
2023/04/25 13:46:58;;;;;;;3.83;0.95;;;;;;;;;;6186107;28;20050;-81
2023/04/25 13:50:00;;;;;;;1.95;0.70;;;;;;;;;;6189177;28;20051;-80
2023/04/25 13:53:01;;;;;;;0.85;0.50;;;;;;;;;;6192809;28;20053;-78
2023/04/25 13:56:04;;;;;;;1.50;0.60;;;;;;;;;;6191730;28;20390;-77
2023/04/25 13:59:07;;;;;;;1.20;0.50;;;;;;;;;;6191075;28;20050;-78
2023/04/25 14:02:09;;;;;;;5.05;0.73;;;;;;;;;;6188991;28;20160;-80
2023/04/25 14:05:10;;;;;;;0.75;0.47;;;;;;;;;;6189267;28;20059;-78
2023/04/25 14:08:12;;;;;;;0.88;0.50;;;;;;;;;;6190864;28;20054;-77
2023/04/25 14:11:14;;;;;;;1.00;0.50;;;;;;;;;;6191421;28;20086;-78
2023/04/25 14:14:17;;;;;;;1.17;0.65;;;;;;;;;;6192391;28;20062;-81
2023/04/25 14:17:18;;;;;;;;;;;;;;;;;;6185868;28;20141;-78
2023/04/25 14:20:21;;;;;;;1.55;0.70;;;;;;;;;;6189888;28;20137;-78
2023/04/25 14:23:22;;;;;;;1.35;0.60;;;;;;;;;;6191278;28;20064;-78
2023/04/25 14:26:24;;;;;;;1.48;1.05;;;;;;;;;;6187619;28;20054;-77
2023/04/25 14:29:27;;;;;;;0.95;0.70;;;;;;;;;;6188940;28;20097;-77
2023/04/25 14:32:32;;;;;;;4.18;0.70;;;;;;;;;;6191396;28;20132;-78
2023/04/25 14:35:34;;;;;;;0.85;0.60;;;;;;;;;;6188002;28;20054;-78
2023/04/25 14:38:36;;;;;;;2.40;0.70;;;;;;;;;;6189464;28;20065;-79
2023/04/25 14:41:37;;;;;;;1.67;0.70;;;;;;;;;;6185186;28;20081;-79
2023/04/25 14:44:41;;;;;;;1.80;0.70;;;;;;;;;;6189856;28;20144;-78
2023/04/25 14:47:42;;;;;;;3.10;0.88;;;;;;;;;;6189640;28;20069;-77
2023/04/25 14:50:44;;;;;;;0.85;0.52;;;;;;;;;;6189029;28;20057;-79
2023/04/25 14:53:46;;;;;;;2.05;0.70;;;;;;;;;;6189225;28;20043;-75
2023/04/25 14:56:48;;;;;;;4.72;1.30;;;;;;;;;;6188909;28;20105;-76
2023/04/25 14:59:50;;;;;;;2.15;1.30;;;;;;;;;;6190233;28;20042;-75
2023/04/25 15:02:52;;;;;;;2.10;1.70;;;;;;;;;;6188037;28;20053;-75
2023/04/25 15:05:55;;;;;;;5.55;3.85;;;;;;;;;;6189241;28;20058;-75
2023/04/25 15:08:57;;;;;;;3.38;1.88;;;;;;;;;;6187096;28;20104;-75
2023/04/25 15:11:59;;;;;;;3.13;2.35;;;;;;;;;;6191044;28;20361;-75
2023/04/25 15:15:02;;;;;;;1.63;0.88;;;;;;;;;;6187373;28;20338;-75
2023/04/25 15:18:04;;;;;;;1.33;0.73;;;;;;;;;;6189235;28;20385;-75
2023/04/25 15:21:06;;;;;;;4.20;0.70;;;;;;;;;;6188631;28;20112;-75
2023/04/25 15:24:08;;;;;;;1.07;0.60;;;;;;;;;;6189731;28;20050;-75
2023/04/25 15:27:10;;;;;;;2.75;0.70;;;;;;;;;;6188604;28;20063;-75
2023/04/25 15:30:15;;;;;;;0.77;0.50;;;;;;;;;;6188998;28;20097;-72
2023/04/25 15:33:16;;;;;;;1.38;0.73;;;;;;;;;;6186762;28;20104;-73
2023/04/25 15:36:18;;;;;;;1.40;0.60;;;;;;;;;;6190438;28;20080;-74
2023/04/25 15:39:20;;;;;;;1.58;0.80;;;;;;;;;;6186228;28;20503;-73
2023/04/25 15:42:22;;;;;;;1.23;0.80;;;;;;;;;;6187365;28;20069;-74
2023/04/25 15:45:25;;;;;;;2.88;0.70;;;;;;;;;;6188408;28;20063;-74
2023/04/25 15:48:27;;;;;;;1.17;0.70;;;;;;;;;;6187922;28;20055;-73
2023/04/25 15:51:29;;;;;;;1.65;0.70;;;;;;;;;;6190060;28;20050;-74
2023/04/25 15:54:30;;;;;;;19.00;11.07;;;;;;;;;;6191621;28;20050;-73
2023/04/25 15:57:33;;;;;;;46.88;30.02;;;;;;;;;;6193745;28;20073;-72
2023/04/25 16:00:36;;;;;;;77.82;47.25;;;;;;;;;;6193199;28;20061;-71
2023/04/25 16:03:38;;;;;;;39.33;20.30;;;;;;;;;;6192433;28;20122;-72
2023/04/25 16:06:41;;;;;;;2.90;1.98;;;;;;;;;;6191938;28;20066;-72
2023/04/25 16:09:43;;;;;;;0.80;0.60;;;;;;;;;;6195329;28;20061;-72
2023/04/25 16:12:46;;;;;;;1.02;0.70;;;;;;;;;;6192392;28;20322;-72
2023/04/25 16:15:49;;;;;;;1.45;0.93;;;;;;;;;;6191513;28;20050;-72
2023/04/25 16:18:51;;;;;;;1.50;0.70;;;;;;;;;;6191640;28;20046;-72
2023/04/25 16:21:53;;;;;;;1.15;0.70;;;;;;;;;;6190948;28;20289;-72
2023/04/25 16:24:55;;;;;;;1.10;0.60;;;;;;;;;;6192705;28;20062;-72
2023/04/25 16:27:57;;;;;;;0.68;0.60;;;;;;;;;;6190096;28;20042;-73
2023/04/25 16:31:00;;;;;;;3.50;0.60;;;;;;;;;;6191514;28;20101;-72
2023/04/25 16:34:02;;;;;;;1.15;0.60;;;;;;;;;;6189112;28;20114;-72
2023/04/25 16:37:04;;;;;;;1.08;0.63;;;;;;;;;;6188098;28;20128;-72
2023/04/25 16:40:08;;;;;;;1.23;1.00;;;;;;;;;;6191750;28;20068;-72
2023/04/25 16:43:10;;;;;;;1.83;1.00;;;;;;;;;;6191774;28;20074;-72
2023/04/25 16:46:13;;;;;;;1.05;0.77;;;;;;;;;;6191377;28;20055;-72
2023/04/25 16:49:15;;;;;;;1.13;0.63;;;;;;;;;;6192544;28;20329;-73
2023/04/25 16:52:18;;;;;;;1.73;0.70;;;;;;;;;;6190905;28;20294;-72
2023/04/25 16:55:20;;;;;;;0.88;0.70;;;;;;;;;;6191685;28;20057;-73
2023/04/25 16:58:22;;;;;;;0.70;0.60;;;;;;;;;;6192655;28;20053;-72
2023/04/25 17:01:25;;;;;;;1.13;0.63;;;;;;;;;;6193909;28;20376;-72
2023/04/25 17:04:27;;;;;;;2.63;0.70;;;;;;;;;;6193051;28;20084;-72
2023/04/25 17:07:29;;;;;;;1.58;1.10;;;;;;;;;;6189814;28;20050;-73
2023/04/25 17:10:30;;;;;;;2.33;0.73;;;;;;;;;;6190041;28;20084;-72
2023/04/25 17:13:32;;;;;;;1.35;0.70;;;;;;;;;;6190718;28;20070;-73
2023/04/25 17:16:36;;;;;;;2.45;0.35;;;;;;;;;;6188941;28;20050;-73
2023/04/25 17:19:38;;;;;;;1.83;0.80;;;;;;;;;;6191731;28;20043;-73
2023/04/25 17:22:40;;;;;;;1.17;0.73;;;;;;;;;;6189184;28;20108;-73
2023/04/25 17:25:42;;;;;;;4.20;1.45;;;;;;;;;;6189607;28;20082;-73
2023/04/25 17:28:47;;;;;;;1.52;0.70;;;;;;;;;;6190758;28;20050;-73
2023/04/25 17:31:51;;;;;;;1.42;1.10;;;;;;;;;;6193235;28;20298;-72
2023/04/25 17:34:53;;;;;;;;;;;;;;;;;;6189729;28;20109;-72
2023/04/25 17:37:54;;;;;;;3.17;1.50;;;;;;;;;;6188709;28;20045;-74
2023/04/25 17:40:56;;;;;;;3.70;1.90;;;;;;;;;;6190776;28;20043;-75
2023/04/25 17:43:58;;;;;;;2.70;1.50;;;;;;;;;;6190521;28;20054;-74
2023/04/25 17:47:01;;;;;;;2.58;1.65;;;;;;;;;;6195272;28;20058;-74
2023/04/25 17:50:03;;;;;;;2.55;1.20;;;;;;;;;;6191350;28;20065;-74
2023/04/25 17:53:05;;;;;;;1.83;1.02;;;;;;;;;;6194778;28;20051;-73
2023/04/25 17:56:07;;;;;;;1.77;1.15;;;;;;;;;;6193507;28;20070;-73
2023/04/25 17:59:09;;;;;;;2.05;0.98;;;;;;;;;;6197099;28;20096;-74
2023/04/25 18:02:12;;;;;;;1.52;1.00;;;;;;;;;;6194362;28;20054;-73
2023/04/25 18:05:14;;;;;;;1.42;0.93;;;;;;;;;;6195220;28;20070;-72
2023/04/25 18:08:16;;;;;;;1.85;0.90;;;;;;;;;;6194986;28;20059;-73
2023/04/25 18:11:17;;;;;;;4.63;1.10;;;;;;;;;;6193904;28;20470;-74
2023/04/25 18:14:20;;;;;;;0.93;0.80;;;;;;;;;;6196758;28;20054;-74
2023/04/25 18:17:24;;;;;;;1.60;1.20;;;;;;;;;;6191273;28;20055;-74
2023/04/25 18:20:27;;;;;;;2.50;0.95;;;;;;;;;;6195529;28;20050;-73